sensor_id;sensor_type;location;lat;lon;timestamp;temperature;humidity
34201;DHT22;20469;55.638;37.670;2023-04-28T00:00:00;13.50;6.10
34201;DHT22;20469;55.638;37.670;2023-04-28T00:02:32;13.50;11.10
34201;DHT22;20469;55.638;37.670;2023-04-28T00:05:00;13.40;14.90
34201;DHT22;20469;55.638;37.670;2023-04-28T00:07:31;13.20;36.20
34201;DHT22;20469;55.638;37.670;2023-04-28T00:09:58;13.20;49.80
34201;DHT22;20469;55.638;37.670;2023-04-28T00:12:25;13.20;55.50
34201;DHT22;20469;55.638;37.670;2023-04-28T00:14:53;13.10;86.90
34201;DHT22;20469;55.638;37.670;2023-04-28T00:17:20;13.10;98.10
34201;DHT22;20469;55.638;37.670;2023-04-28T00:19:47;12.90;99.90
34201;DHT22;20469;55.638;37.670;2023-04-28T00:22:15;13.10;99.90
34201;DHT22;20469;55.638;37.670;2023-04-28T00:24:42;13.10;99.90
34201;DHT22;20469;55.638;37.670;2023-04-28T00:27:09;13.10;99.90
34201;DHT22;20469;55.638;37.670;2023-04-28T00:29:37;13.00;99.90
34201;DHT22;20469;55.638;37.670;2023-04-28T00:32:04;13.00;99.90
34201;DHT22;20469;55.638;37.670;2023-04-28T00:34:32;12.90;99.90
34201;DHT22;20469;55.638;37.670;2023-04-28T00:37:00;13.00;99.90
34201;DHT22;20469;55.638;37.670;2023-04-28T00:39:27;13.00;99.90
34201;DHT22;20469;55.638;37.670;2023-04-28T00:41:54;13.00;99.90
34201;DHT22;20469;55.638;37.670;2023-04-28T00:44:21;13.30;99.90
34201;DHT22;20469;55.638;37.670;2023-04-28T00:46:48;13.10;94.70
34201;DHT22;20469;55.638;37.670;2023-04-28T00:49:16;12.90;98.80
34201;DHT22;20469;55.638;37.670;2023-04-28T00:54:32;12.70;99.90
34201;DHT22;20469;55.638;37.670;2023-04-28T00:57:01;12.70;99.90
34201;DHT22;20469;55.638;37.670;2023-04-28T00:59:31;12.80;99.90
34201;DHT22;20469;55.638;37.670;2023-04-28T01:01:59;12.90;99.90
34201;DHT22;20469;55.638;37.670;2023-04-28T01:07:14;12.80;99.90
34201;DHT22;20469;55.638;37.670;2023-04-28T01:09:44;12.80;99.90
34201;DHT22;20469;55.638;37.670;2023-04-28T01:12:32;12.90;99.90
34201;DHT22;20469;55.638;37.670;2023-04-28T01:14:59;13.10;99.90
34201;DHT22;20469;55.638;37.670;2023-04-28T01:17:46;13.40;94.30
34201;DHT22;20469;55.638;37.670;2023-04-28T01:20:14;13.00;76.30
34201;DHT22;20469;55.638;37.670;2023-04-28T01:25:27;12.70;96.80
34201;DHT22;20469;55.638;37.670;2023-04-28T01:27:54;12.90;99.90
34201;DHT22;20469;55.638;37.670;2023-04-28T01:30:22;12.80;99.90
34201;DHT22;20469;55.638;37.670;2023-04-28T01:32:49;12.80;99.90
34201;DHT22;20469;55.638;37.670;2023-04-28T01:35:16;12.80;98.40
34201;DHT22;20469;55.638;37.670;2023-04-28T01:37:43;12.90;97.40
34201;DHT22;20469;55.638;37.670;2023-04-28T01:40:11;12.90;92.80
34201;DHT22;20469;55.638;37.670;2023-04-28T01:42:57;12.80;94.40
34201;DHT22;20469;55.638;37.670;2023-04-28T01:45:24;12.90;94.30
34201;DHT22;20469;55.638;37.670;2023-04-28T01:47:51;12.80;93.20
34201;DHT22;20469;55.638;37.670;2023-04-28T01:50:19;12.80;94.20
34201;DHT22;20469;55.638;37.670;2023-04-28T01:52:46;12.70;97.70
34201;DHT22;20469;55.638;37.670;2023-04-28T01:55:32;12.70;99.90
34201;DHT22;20469;55.638;37.670;2023-04-28T01:57:59;12.80;99.90
34201;DHT22;20469;55.638;37.670;2023-04-28T02:00:26;12.70;99.90
34201;DHT22;20469;55.638;37.670;2023-04-28T02:02:56;12.60;99.90
34201;DHT22;20469;55.638;37.670;2023-04-28T02:05:24;12.70;99.90
34201;DHT22;20469;55.638;37.670;2023-04-28T02:07:51;12.70;99.90
34201;DHT22;20469;55.638;37.670;2023-04-28T02:10:18;12.90;99.90
34201;DHT22;20469;55.638;37.670;2023-04-28T02:12:46;13.00;99.90
34201;DHT22;20469;55.638;37.670;2023-04-28T02:15:14;12.90;99.90
34201;DHT22;20469;55.638;37.670;2023-04-28T02:18:00;12.80;99.90
34201;DHT22;20469;55.638;37.670;2023-04-28T02:20:27;13.10;99.90
34201;DHT22;20469;55.638;37.670;2023-04-28T02:23:14;13.10;99.90
34201;DHT22;20469;55.638;37.670;2023-04-28T02:25:41;13.10;99.00
34201;DHT22;20469;55.638;37.670;2023-04-28T02:31:15;12.80;99.90
34201;DHT22;20469;55.638;37.670;2023-04-28T02:34:00;12.80;99.90
34201;DHT22;20469;55.638;37.670;2023-04-28T02:36:46;12.70;99.90
34201;DHT22;20469;55.638;37.670;2023-04-28T02:39:14;12.80;99.90
34201;DHT22;20469;55.638;37.670;2023-04-28T02:41:41;12.90;99.90
34201;DHT22;20469;55.638;37.670;2023-04-28T02:44:08;13.00;99.90
34201;DHT22;20469;55.638;37.670;2023-04-28T02:46:35;13.00;99.90
34201;DHT22;20469;55.638;37.670;2023-04-28T02:52:07;13.00;99.90
34201;DHT22;20469;55.638;37.670;2023-04-28T02:54:53;13.00;99.90
34201;DHT22;20469;55.638;37.670;2023-04-28T02:57:23;13.00;99.90
34201;DHT22;20469;55.638;37.670;2023-04-28T02:59:50;13.00;99.90
34201;DHT22;20469;55.638;37.670;2023-04-28T03:02:17;13.00;99.90
34201;DHT22;20469;55.638;37.670;2023-04-28T03:05:05;12.80;99.90
34201;DHT22;20469;55.638;37.670;2023-04-28T03:07:32;12.90;99.90
34201;DHT22;20469;55.638;37.670;2023-04-28T03:09:59;12.90;99.90
34201;DHT22;20469;55.638;37.670;2023-04-28T03:12:29;12.80;99.90
34201;DHT22;20469;55.638;37.670;2023-04-28T03:14:56;12.80;99.90
34201;DHT22;20469;55.638;37.670;2023-04-28T03:17:24;12.80;99.90
34201;DHT22;20469;55.638;37.670;2023-04-28T03:19:51;12.90;99.90
34201;DHT22;20469;55.638;37.670;2023-04-28T03:22:18;13.00;99.90
34201;DHT22;20469;55.638;37.670;2023-04-28T03:24:45;13.00;99.90
34201;DHT22;20469;55.638;37.670;2023-04-28T03:27:12;13.00;99.90
34201;DHT22;20469;55.638;37.670;2023-04-28T03:29:39;13.00;99.90
34201;DHT22;20469;55.638;37.670;2023-04-28T03:32:07;12.90;99.90
34201;DHT22;20469;55.638;37.670;2023-04-28T03:34:34;13.00;99.90
34201;DHT22;20469;55.638;37.670;2023-04-28T03:37:01;13.20;99.90
34201;DHT22;20469;55.638;37.670;2023-04-28T03:39:28;13.00;99.90
34201;DHT22;20469;55.638;37.670;2023-04-28T03:41:56;13.00;99.90
34201;DHT22;20469;55.638;37.670;2023-04-28T03:44:23;13.10;99.90
34201;DHT22;20469;55.638;37.670;2023-04-28T03:46:50;13.10;99.90
34201;DHT22;20469;55.638;37.670;2023-04-28T03:49:17;13.00;99.90
34201;DHT22;20469;55.638;37.670;2023-04-28T03:51:44;13.20;99.90
34201;DHT22;20469;55.638;37.670;2023-04-28T03:54:11;13.40;99.90
34201;DHT22;20469;55.638;37.670;2023-04-28T03:56:38;13.10;99.90
34201;DHT22;20469;55.638;37.670;2023-04-28T03:59:06;13.60;99.90
34201;DHT22;20469;55.638;37.670;2023-04-28T04:01:33;13.40;99.90
34201;DHT22;20469;55.638;37.670;2023-04-28T04:04:00;13.80;99.90
34201;DHT22;20469;55.638;37.670;2023-04-28T04:06:27;13.30;99.90
34201;DHT22;20469;55.638;37.670;2023-04-28T04:08:55;13.50;99.90
34201;DHT22;20469;55.638;37.670;2023-04-28T04:11:22;14.00;99.90
34201;DHT22;20469;55.638;37.670;2023-04-28T04:14:08;13.70;99.90
34201;DHT22;20469;55.638;37.670;2023-04-28T04:16:35;13.50;99.90
34201;DHT22;20469;55.638;37.670;2023-04-28T04:19:03;13.40;99.90
34201;DHT22;20469;55.638;37.670;2023-04-28T04:21:30;13.70;99.90
34201;DHT22;20469;55.638;37.670;2023-04-28T04:23:57;13.40;99.90
34201;DHT22;20469;55.638;37.670;2023-04-28T04:26:25;13.70;99.90
34201;DHT22;20469;55.638;37.670;2023-04-28T04:28:52;13.60;99.90
34201;DHT22;20469;55.638;37.670;2023-04-28T04:31:38;13.50;99.90
34201;DHT22;20469;55.638;37.670;2023-04-28T04:34:05;13.30;99.90
34201;DHT22;20469;55.638;37.670;2023-04-28T04:36:33;13.60;99.90
34201;DHT22;20469;55.638;37.670;2023-04-28T04:39:00;13.70;99.90
34201;DHT22;20469;55.638;37.670;2023-04-28T04:41:27;13.90;99.90
34201;DHT22;20469;55.638;37.670;2023-04-28T04:43:55;13.60;99.90
34201;DHT22;20469;55.638;37.670;2023-04-28T04:46:22;13.60;99.90
34201;DHT22;20469;55.638;37.670;2023-04-28T04:48:49;13.60;99.90
34201;DHT22;20469;55.638;37.670;2023-04-28T04:51:16;13.70;99.90
34201;DHT22;20469;55.638;37.670;2023-04-28T04:53:44;13.50;99.90
34201;DHT22;20469;55.638;37.670;2023-04-28T04:56:11;14.00;99.90
34201;DHT22;20469;55.638;37.670;2023-04-28T04:58:42;13.90;99.90
34201;DHT22;20469;55.638;37.670;2023-04-28T05:03:56;13.40;99.90
34201;DHT22;20469;55.638;37.670;2023-04-28T05:06:23;13.50;99.90
34201;DHT22;20469;55.638;37.670;2023-04-28T05:08:50;13.90;99.90
34201;DHT22;20469;55.638;37.670;2023-04-28T05:11:17;13.30;99.90
34201;DHT22;20469;55.638;37.670;2023-04-28T05:13:45;13.90;99.90
34201;DHT22;20469;55.638;37.670;2023-04-28T05:16:12;13.60;99.90
34201;DHT22;20469;55.638;37.670;2023-04-28T05:18:39;13.90;99.90
34201;DHT22;20469;55.638;37.670;2023-04-28T05:21:07;14.10;99.90
34201;DHT22;20469;55.638;37.670;2023-04-28T05:23:34;14.10;99.90
34201;DHT22;20469;55.638;37.670;2023-04-28T05:26:01;14.00;99.90
34201;DHT22;20469;55.638;37.670;2023-04-28T05:28:30;14.20;99.90
34201;DHT22;20469;55.638;37.670;2023-04-28T05:30:57;14.20;99.90
34201;DHT22;20469;55.638;37.670;2023-04-28T05:33:24;13.70;99.90
34201;DHT22;20469;55.638;37.670;2023-04-28T05:35:51;14.20;99.90
34201;DHT22;20469;55.638;37.670;2023-04-28T05:38:19;14.10;99.90
34201;DHT22;20469;55.638;37.670;2023-04-28T05:40:49;14.10;99.90
34201;DHT22;20469;55.638;37.670;2023-04-28T05:43:16;14.40;99.90
34201;DHT22;20469;55.638;37.670;2023-04-28T05:45:43;14.70;99.90
34201;DHT22;20469;55.638;37.670;2023-04-28T05:48:11;15.30;99.90
34201;DHT22;20469;55.638;37.670;2023-04-28T05:50:38;15.20;99.90
34201;DHT22;20469;55.638;37.670;2023-04-28T05:53:06;14.90;99.90
34201;DHT22;20469;55.638;37.670;2023-04-28T05:55:33;15.20;99.90
34201;DHT22;20469;55.638;37.670;2023-04-28T05:58:02;15.40;92.60
34201;DHT22;20469;55.638;37.670;2023-04-28T06:00:31;14.90;99.90
34201;DHT22;20469;55.638;37.670;2023-04-28T06:03:00;14.90;99.90
34201;DHT22;20469;55.638;37.670;2023-04-28T06:05:28;15.20;99.90
34201;DHT22;20469;55.638;37.670;2023-04-28T06:07:56;15.40;99.90
34201;DHT22;20469;55.638;37.670;2023-04-28T06:10:25;15.40;95.10
34201;DHT22;20469;55.638;37.670;2023-04-28T06:12:52;15.10;92.70
34201;DHT22;20469;55.638;37.670;2023-04-28T06:15:19;15.20;99.90
34201;DHT22;20469;55.638;37.670;2023-04-28T06:17:47;15.20;92.70
34201;DHT22;20469;55.638;37.670;2023-04-28T06:20:14;15.00;99.90
34201;DHT22;20469;55.638;37.670;2023-04-28T06:22:42;14.90;99.90
34201;DHT22;20469;55.638;37.670;2023-04-28T06:25:09;15.40;99.90
34201;DHT22;20469;55.638;37.670;2023-04-28T06:27:37;15.10;99.90
34201;DHT22;20469;55.638;37.670;2023-04-28T06:30:05;15.10;99.90
34201;DHT22;20469;55.638;37.670;2023-04-28T06:32:32;15.00;99.90
34201;DHT22;20469;55.638;37.670;2023-04-28T06:34:59;15.10;99.90
34201;DHT22;20469;55.638;37.670;2023-04-28T06:37:27;15.30;99.90
34201;DHT22;20469;55.638;37.670;2023-04-28T06:39:54;15.00;99.90
34201;DHT22;20469;55.638;37.670;2023-04-28T06:42:21;15.30;99.90
34201;DHT22;20469;55.638;37.670;2023-04-28T06:44:48;15.30;99.90
34201;DHT22;20469;55.638;37.670;2023-04-28T06:47:16;15.60;99.90
34201;DHT22;20469;55.638;37.670;2023-04-28T06:49:43;15.40;99.90
34201;DHT22;20469;55.638;37.670;2023-04-28T06:52:11;15.10;99.90
34201;DHT22;20469;55.638;37.670;2023-04-28T06:54:40;15.10;99.90
34201;DHT22;20469;55.638;37.670;2023-04-28T06:57:07;15.20;99.90
34201;DHT22;20469;55.638;37.670;2023-04-28T06:59:34;15.20;99.90
34201;DHT22;20469;55.638;37.670;2023-04-28T07:02:01;15.50;99.90
34201;DHT22;20469;55.638;37.670;2023-04-28T07:04:29;15.50;99.90
34201;DHT22;20469;55.638;37.670;2023-04-28T07:06:56;15.20;99.90
34201;DHT22;20469;55.638;37.670;2023-04-28T07:09:23;15.10;99.90
34201;DHT22;20469;55.638;37.670;2023-04-28T07:11:50;15.10;99.90
34201;DHT22;20469;55.638;37.670;2023-04-28T07:14:17;15.10;99.90
34201;DHT22;20469;55.638;37.670;2023-04-28T07:16:46;15.10;99.90
34201;DHT22;20469;55.638;37.670;2023-04-28T07:19:13;15.40;99.90
34201;DHT22;20469;55.638;37.670;2023-04-28T07:21:40;15.40;99.90
34201;DHT22;20469;55.638;37.670;2023-04-28T07:24:07;15.10;99.90
34201;DHT22;20469;55.638;37.670;2023-04-28T07:26:34;15.30;99.90
34201;DHT22;20469;55.638;37.670;2023-04-28T07:29:01;15.60;99.90
34201;DHT22;20469;55.638;37.670;2023-04-28T07:31:29;15.60;99.90
34201;DHT22;20469;55.638;37.670;2023-04-28T07:33:56;15.30;99.90
34201;DHT22;20469;55.638;37.670;2023-04-28T07:36:42;15.10;99.90
34201;DHT22;20469;55.638;37.670;2023-04-28T07:39:09;15.30;99.90
34201;DHT22;20469;55.638;37.670;2023-04-28T07:41:37;15.70;99.90
34201;DHT22;20469;55.638;37.670;2023-04-28T07:44:05;15.40;99.90
34201;DHT22;20469;55.638;37.670;2023-04-28T07:46:34;16.40;99.90
34201;DHT22;20469;55.638;37.670;2023-04-28T07:49:02;17.10;99.90
34201;DHT22;20469;55.638;37.670;2023-04-28T07:51:30;16.80;99.90
34201;DHT22;20469;55.638;37.670;2023-04-28T07:53:57;17.50;99.90
34201;DHT22;20469;55.638;37.670;2023-04-28T07:56:24;16.60;99.90
34201;DHT22;20469;55.638;37.670;2023-04-28T07:59:10;16.10;99.90
34201;DHT22;20469;55.638;37.670;2023-04-28T08:01:38;15.40;99.90
34201;DHT22;20469;55.638;37.670;2023-04-28T08:04:05;15.20;99.90
34201;DHT22;20469;55.638;37.670;2023-04-28T08:06:33;15.20;99.90
34201;DHT22;20469;55.638;37.670;2023-04-28T08:09:02;15.40;99.90
34201;DHT22;20469;55.638;37.670;2023-04-28T08:11:31;14.90;99.90
34201;DHT22;20469;55.638;37.670;2023-04-28T08:13:59;15.10;99.90
34201;DHT22;20469;55.638;37.670;2023-04-28T08:16:30;14.90;99.90
34201;DHT22;20469;55.638;37.670;2023-04-28T08:18:58;14.80;99.90
34201;DHT22;20469;55.638;37.670;2023-04-28T08:21:26;14.70;99.90
34201;DHT22;20469;55.638;37.670;2023-04-28T08:23:54;14.70;99.90
34201;DHT22;20469;55.638;37.670;2023-04-28T08:26:21;14.90;99.90
34201;DHT22;20469;55.638;37.670;2023-04-28T08:28:51;15.00;99.90
34201;DHT22;20469;55.638;37.670;2023-04-28T08:31:18;15.00;99.90
34201;DHT22;20469;55.638;37.670;2023-04-28T08:33:46;14.80;99.90
34201;DHT22;20469;55.638;37.670;2023-04-28T08:36:16;14.70;99.90
34201;DHT22;20469;55.638;37.670;2023-04-28T08:38:44;14.80;99.90
34201;DHT22;20469;55.638;37.670;2023-04-28T08:41:15;14.60;99.90
34201;DHT22;20469;55.638;37.670;2023-04-28T08:43:43;14.90;99.90
34201;DHT22;20469;55.638;37.670;2023-04-28T08:46:13;14.80;99.90
34201;DHT22;20469;55.638;37.670;2023-04-28T08:48:43;14.90;99.90
34201;DHT22;20469;55.638;37.670;2023-04-28T08:51:17;14.50;99.90
34201;DHT22;20469;55.638;37.670;2023-04-28T08:53:53;14.90;99.90
34201;DHT22;20469;55.638;37.670;2023-04-28T08:56:26;14.80;99.90
34201;DHT22;20469;55.638;37.670;2023-04-28T08:59:03;14.60;99.90
34201;DHT22;20469;55.638;37.670;2023-04-28T09:01:31;14.50;99.90
34201;DHT22;20469;55.638;37.670;2023-04-28T09:04:01;14.80;99.90
34201;DHT22;20469;55.638;37.670;2023-04-28T09:06:43;14.70;99.90
34201;DHT22;20469;55.638;37.670;2023-04-28T09:12:02;14.50;99.90
34201;DHT22;20469;55.638;37.670;2023-04-28T09:14:33;14.40;99.90
34201;DHT22;20469;55.638;37.670;2023-04-28T09:17:01;14.40;99.90
34201;DHT22;20469;55.638;37.670;2023-04-28T09:19:33;14.70;99.90
34201;DHT22;20469;55.638;37.670;2023-04-28T09:22:02;14.90;99.90
34201;DHT22;20469;55.638;37.670;2023-04-28T09:24:50;15.00;99.90
34201;DHT22;20469;55.638;37.670;2023-04-28T09:27:28;15.30;99.90
34201;DHT22;20469;55.638;37.670;2023-04-28T09:29:55;15.60;99.90
34201;DHT22;20469;55.638;37.670;2023-04-28T09:32:23;16.50;99.90
34201;DHT22;20469;55.638;37.670;2023-04-28T09:34:54;16.60;99.90
34201;DHT22;20469;55.638;37.670;2023-04-28T09:37:25;15.80;99.90
34201;DHT22;20469;55.638;37.670;2023-04-28T09:39:54;15.70;99.90
34201;DHT22;20469;55.638;37.670;2023-04-28T09:42:32;15.50;99.90
34201;DHT22;20469;55.638;37.670;2023-04-28T09:45:11;15.70;99.90
34201;DHT22;20469;55.638;37.670;2023-04-28T09:47:41;15.70;99.90
34201;DHT22;20469;55.638;37.670;2023-04-28T09:50:10;15.90;99.90
34201;DHT22;20469;55.638;37.670;2023-04-28T09:52:45;15.90;99.90
34201;DHT22;20469;55.638;37.670;2023-04-28T09:55:23;16.00;99.90
34201;DHT22;20469;55.638;37.670;2023-04-28T09:57:54;15.90;99.90
34201;DHT22;20469;55.638;37.670;2023-04-28T10:00:21;15.90;99.90
34201;DHT22;20469;55.638;37.670;2023-04-28T10:02:50;15.70;99.90
34201;DHT22;20469;55.638;37.670;2023-04-28T10:05:18;15.40;99.90
34201;DHT22;20469;55.638;37.670;2023-04-28T10:07:48;15.70;99.90
34201;DHT22;20469;55.638;37.670;2023-04-28T10:10:16;16.10;99.90
34201;DHT22;20469;55.638;37.670;2023-04-28T10:12:43;16.00;99.90
34201;DHT22;20469;55.638;37.670;2023-04-28T10:15:12;15.80;99.90
34201;DHT22;20469;55.638;37.670;2023-04-28T10:17:39;16.00;99.90
34201;DHT22;20469;55.638;37.670;2023-04-28T10:20:07;15.90;99.90
34201;DHT22;20469;55.638;37.670;2023-04-28T10:22:50;15.90;99.90
34201;DHT22;20469;55.638;37.670;2023-04-28T10:27:52;16.00;99.90
34201;DHT22;20469;55.638;37.670;2023-04-28T10:30:21;16.10;99.90
34201;DHT22;20469;55.638;37.670;2023-04-28T10:33:22;16.40;99.90
34201;DHT22;20469;55.638;37.670;2023-04-28T10:36:10;16.80;99.90
34201;DHT22;20469;55.638;37.670;2023-04-28T10:39:09;17.80;99.90
34201;DHT22;20469;55.638;37.670;2023-04-28T10:41:40;18.60;99.90
34201;DHT22;20469;55.638;37.670;2023-04-28T10:47:04;17.50;99.90
34201;DHT22;20469;55.638;37.670;2023-04-28T10:55:30;16.30;99.90
34201;DHT22;20469;55.638;37.670;2023-04-28T11:00:43;16.00;99.90
34201;DHT22;20469;55.638;37.670;2023-04-28T11:06:23;16.10;99.90
34201;DHT22;20469;55.638;37.670;2023-04-28T11:11:27;15.90;99.90
34201;DHT22;20469;55.638;37.670;2023-04-28T11:19:21;14.40;99.90
34201;DHT22;20469;55.638;37.670;2023-04-28T11:21:51;14.50;99.90
34201;DHT22;20469;55.638;37.670;2023-04-28T11:24:19;14.40;99.90
34201;DHT22;20469;55.638;37.670;2023-04-28T11:26:47;14.30;99.90
34201;DHT22;20469;55.638;37.670;2023-04-28T11:29:14;14.20;99.90
34201;DHT22;20469;55.638;37.670;2023-04-28T11:31:50;14.30;99.90
34201;DHT22;20469;55.638;37.670;2023-04-28T11:34:19;14.40;99.90
34201;DHT22;20469;55.638;37.670;2023-04-28T11:36:49;14.60;99.90
34201;DHT22;20469;55.638;37.670;2023-04-28T11:39:31;14.60;99.90
34201;DHT22;20469;55.638;37.670;2023-04-28T11:42:08;14.50;99.90
34201;DHT22;20469;55.638;37.670;2023-04-28T11:44:35;14.40;99.90
34201;DHT22;20469;55.638;37.670;2023-04-28T11:47:04;14.70;99.90
34201;DHT22;20469;55.638;37.670;2023-04-28T11:49:42;14.80;99.90
34201;DHT22;20469;55.638;37.670;2023-04-28T11:52:10;14.60;99.90
34201;DHT22;20469;55.638;37.670;2023-04-28T11:54:38;14.40;99.90
34201;DHT22;20469;55.638;37.670;2023-04-28T11:57:05;14.30;99.90
34201;DHT22;20469;55.638;37.670;2023-04-28T11:59:34;14.50;99.90
34201;DHT22;20469;55.638;37.670;2023-04-28T12:02:04;14.90;99.90
34201;DHT22;20469;55.638;37.670;2023-04-28T12:04:32;15.10;99.90
34201;DHT22;20469;55.638;37.670;2023-04-28T12:07:10;15.00;99.90
34201;DHT22;20469;55.638;37.670;2023-04-28T12:09:42;14.80;99.90
34201;DHT22;20469;55.638;37.670;2023-04-28T12:14:56;15.20;99.90
34201;DHT22;20469;55.638;37.670;2023-04-28T12:17:26;15.60;99.90
34201;DHT22;20469;55.638;37.670;2023-04-28T12:19:59;16.00;99.90
34201;DHT22;20469;55.638;37.670;2023-04-28T12:22:27;15.90;99.90
34201;DHT22;20469;55.638;37.670;2023-04-28T12:25:11;15.70;99.90
34201;DHT22;20469;55.638;37.670;2023-04-28T12:27:39;15.40;99.90
34201;DHT22;20469;55.638;37.670;2023-04-28T12:32:47;15.60;99.90
34201;DHT22;20469;55.638;37.670;2023-04-28T12:35:14;15.40;99.90
34201;DHT22;20469;55.638;37.670;2023-04-28T12:37:42;15.80;99.90
34201;DHT22;20469;55.638;37.670;2023-04-28T12:40:10;15.30;99.90
34201;DHT22;20469;55.638;37.670;2023-04-28T12:42:37;15.40;99.90
34201;DHT22;20469;55.638;37.670;2023-04-28T12:45:05;15.10;99.90
34201;DHT22;20469;55.638;37.670;2023-04-28T12:47:33;15.00;99.90
34201;DHT22;20469;55.638;37.670;2023-04-28T12:50:00;14.80;99.90
34201;DHT22;20469;55.638;37.670;2023-04-28T12:52:27;14.70;99.90
34201;DHT22;20469;55.638;37.670;2023-04-28T12:54:54;14.90;99.90
34201;DHT22;20469;55.638;37.670;2023-04-28T12:57:21;14.50;99.90
34201;DHT22;20469;55.638;37.670;2023-04-28T12:59:48;14.30;99.90
34201;DHT22;20469;55.638;37.670;2023-04-28T13:02:18;14.70;99.90
34201;DHT22;20469;55.638;37.670;2023-04-28T13:04:45;14.50;99.90
34201;DHT22;20469;55.638;37.670;2023-04-28T13:07:16;14.50;99.90
34201;DHT22;20469;55.638;37.670;2023-04-28T13:09:44;14.60;99.90
34201;DHT22;20469;55.638;37.670;2023-04-28T13:12:13;14.50;99.90
34201;DHT22;20469;55.638;37.670;2023-04-28T13:14:41;14.60;99.90
34201;DHT22;20469;55.638;37.670;2023-04-28T13:17:08;14.40;99.90
34201;DHT22;20469;55.638;37.670;2023-04-28T13:19:36;14.50;99.90
34201;DHT22;20469;55.638;37.670;2023-04-28T13:22:03;14.70;99.90
34201;DHT22;20469;55.638;37.670;2023-04-28T13:24:32;14.60;99.90
34201;DHT22;20469;55.638;37.670;2023-04-28T13:26:59;14.30;99.90
34201;DHT22;20469;55.638;37.670;2023-04-28T13:29:27;14.40;99.90
34201;DHT22;20469;55.638;37.670;2023-04-28T13:31:54;14.20;99.90
34201;DHT22;20469;55.638;37.670;2023-04-28T13:34:22;14.30;99.90
34201;DHT22;20469;55.638;37.670;2023-04-28T13:36:51;14.30;99.90
34201;DHT22;20469;55.638;37.670;2023-04-28T13:39:20;14.30;99.90
34201;DHT22;20469;55.638;37.670;2023-04-28T13:41:48;14.20;99.90
34201;DHT22;20469;55.638;37.670;2023-04-28T13:44:15;14.20;99.90
34201;DHT22;20469;55.638;37.670;2023-04-28T13:46:43;14.00;99.90
34201;DHT22;20469;55.638;37.670;2023-04-28T13:49:10;14.10;99.90
34201;DHT22;20469;55.638;37.670;2023-04-28T13:51:38;14.10;99.90
34201;DHT22;20469;55.638;37.670;2023-04-28T13:54:05;13.70;99.90
34201;DHT22;20469;55.638;37.670;2023-04-28T13:56:37;13.80;99.90
34201;DHT22;20469;55.638;37.670;2023-04-28T13:59:04;13.80;99.90
34201;DHT22;20469;55.638;37.670;2023-04-28T14:01:32;13.90;99.90
34201;DHT22;20469;55.638;37.670;2023-04-28T14:03:59;14.20;99.90
34201;DHT22;20469;55.638;37.670;2023-04-28T14:06:27;13.70;99.90
34201;DHT22;20469;55.638;37.670;2023-04-28T14:08:54;13.80;99.90
34201;DHT22;20469;55.638;37.670;2023-04-28T14:11:22;13.50;99.90
34201;DHT22;20469;55.638;37.670;2023-04-28T14:13:49;13.20;99.90
34201;DHT22;20469;55.638;37.670;2023-04-28T14:16:16;13.00;99.90
34201;DHT22;20469;55.638;37.670;2023-04-28T14:18:44;13.20;99.90
34201;DHT22;20469;55.638;37.670;2023-04-28T14:21:11;12.80;99.90
34201;DHT22;20469;55.638;37.670;2023-04-28T14:23:39;13.10;99.90
34201;DHT22;20469;55.638;37.670;2023-04-28T14:26:06;13.10;99.90
34201;DHT22;20469;55.638;37.670;2023-04-28T14:28:33;13.10;99.90
34201;DHT22;20469;55.638;37.670;2023-04-28T14:31:04;12.70;99.90
34201;DHT22;20469;55.638;37.670;2023-04-28T14:33:35;13.10;99.90
34201;DHT22;20469;55.638;37.670;2023-04-28T14:36:02;12.80;99.90
34201;DHT22;20469;55.638;37.670;2023-04-28T14:38:31;13.00;99.90
34201;DHT22;20469;55.638;37.670;2023-04-28T14:40:58;12.70;99.90
34201;DHT22;20469;55.638;37.670;2023-04-28T14:43:25;12.50;99.90
34201;DHT22;20469;55.638;37.670;2023-04-28T14:45:52;12.60;99.90
34201;DHT22;20469;55.638;37.670;2023-04-28T14:48:19;12.80;99.90
34201;DHT22;20469;55.638;37.670;2023-04-28T14:50:47;13.00;99.90
34201;DHT22;20469;55.638;37.670;2023-04-28T14:53:14;12.70;99.90
34201;DHT22;20469;55.638;37.670;2023-04-28T14:55:41;12.70;99.90
34201;DHT22;20469;55.638;37.670;2023-04-28T14:58:09;12.30;99.90
34201;DHT22;20469;55.638;37.670;2023-04-28T15:00:36;12.40;99.90
34201;DHT22;20469;55.638;37.670;2023-04-28T15:03:04;12.50;99.90
34201;DHT22;20469;55.638;37.670;2023-04-28T15:05:31;12.10;99.90
34201;DHT22;20469;55.638;37.670;2023-04-28T15:07:59;12.10;99.90
34201;DHT22;20469;55.638;37.670;2023-04-28T15:10:34;11.90;99.90
34201;DHT22;20469;55.638;37.670;2023-04-28T15:13:04;11.90;99.90
34201;DHT22;20469;55.638;37.670;2023-04-28T15:15:32;11.70;99.90
34201;DHT22;20469;55.638;37.670;2023-04-28T15:17:59;11.70;99.90
34201;DHT22;20469;55.638;37.670;2023-04-28T15:20:28;11.90;99.90
34201;DHT22;20469;55.638;37.670;2023-04-28T15:22:56;11.60;99.90
34201;DHT22;20469;55.638;37.670;2023-04-28T15:25:24;11.70;99.90
34201;DHT22;20469;55.638;37.670;2023-04-28T15:27:52;11.40;99.90
34201;DHT22;20469;55.638;37.670;2023-04-28T15:30:19;11.30;99.90
34201;DHT22;20469;55.638;37.670;2023-04-28T15:32:48;11.20;99.90
34201;DHT22;20469;55.638;37.670;2023-04-28T15:35:15;11.20;99.90
34201;DHT22;20469;55.638;37.670;2023-04-28T15:37:43;11.20;99.90
34201;DHT22;20469;55.638;37.670;2023-04-28T15:40:15;11.20;99.90
34201;DHT22;20469;55.638;37.670;2023-04-28T15:42:46;11.10;99.90
34201;DHT22;20469;55.638;37.670;2023-04-28T15:45:20;11.10;99.90
34201;DHT22;20469;55.638;37.670;2023-04-28T15:47:48;11.00;99.90
34201;DHT22;20469;55.638;37.670;2023-04-28T15:50:17;11.00;99.90
34201;DHT22;20469;55.638;37.670;2023-04-28T15:52:47;10.90;99.90
34201;DHT22;20469;55.638;37.670;2023-04-28T15:55:18;11.00;99.90
34201;DHT22;20469;55.638;37.670;2023-04-28T15:57:47;10.90;99.90
34201;DHT22;20469;55.638;37.670;2023-04-28T16:00:15;10.80;99.90
34201;DHT22;20469;55.638;37.670;2023-04-28T16:02:43;10.90;99.90
34201;DHT22;20469;55.638;37.670;2023-04-28T16:05:11;10.80;99.90
34201;DHT22;20469;55.638;37.670;2023-04-28T16:07:39;10.90;99.90
34201;DHT22;20469;55.638;37.670;2023-04-28T16:10:11;11.20;99.90
34201;DHT22;20469;55.638;37.670;2023-04-28T16:12:40;11.00;99.90
34201;DHT22;20469;55.638;37.670;2023-04-28T16:15:09;11.00;99.90
34201;DHT22;20469;55.638;37.670;2023-04-28T16:17:37;11.00;99.90